sensor_id;sensor_type;location;lat;lon;timestamp;pressure;altitude;pressure_sealevel;temperature;humidity
77603;BME280;66771;52.434;17.056;2023-01-19T00:02:40;99255.73;;;0.81;91.56
77603;BME280;66771;52.434;17.056;2023-01-19T00:09:13;99259.52;;;0.76;91.43
77603;BME280;66771;52.434;17.056;2023-01-19T00:12:04;99265.22;;;0.76;91.36
77603;BME280;66771;52.434;17.056;2023-01-19T00:14:32;99266.42;;;0.77;91.34
77603;BME280;66771;52.434;17.056;2023-01-19T00:20:28;99268.63;;;0.76;91.26
77603;BME280;66771;52.434;17.056;2023-01-19T00:22:59;99271.02;;;0.77;91.18
77603;BME280;66771;52.434;17.056;2023-01-19T00:28:39;99277.02;;;0.65;90.83
77603;BME280;66771;52.434;17.056;2023-01-19T00:31:48;99278.83;;;0.67;91.15
77603;BME280;66771;52.434;17.056;2023-01-19T00:34:16;99276.52;;;0.71;91.43
77603;BME280;66771;52.434;17.056;2023-01-19T00:36:43;99284.38;;;0.70;91.34
77603;BME280;66771;52.434;17.056;2023-01-19T00:39:19;99289.25;;;0.68;91.38
77603;BME280;66771;52.434;17.056;2023-01-19T00:42:16;99293.29;;;0.69;91.32
77603;BME280;66771;52.434;17.056;2023-01-19T00:45:02;99296.63;;;0.63;91.05
77603;BME280;66771;52.434;17.056;2023-01-19T00:51:12;99301.37;;;0.51;91.29
77603;BME280;66771;52.434;17.056;2023-01-19T00:53:42;99303.59;;;0.50;91.49
77603;BME280;66771;52.434;17.056;2023-01-19T00:56:12;99306.34;;;0.48;91.54
77603;BME280;66771;52.434;17.056;2023-01-19T00:58:45;99307.06;;;0.48;91.49
77603;BME280;66771;52.434;17.056;2023-01-19T01:01:32;99302.73;;;0.46;91.55
77603;BME280;66771;52.434;17.056;2023-01-19T01:04:00;99307.39;;;0.48;91.52
77603;BME280;66771;52.434;17.056;2023-01-19T01:06:34;99309.53;;;0.48;91.51
77603;BME280;66771;52.434;17.056;2023-01-19T01:09:10;99316.34;;;0.50;91.61
77603;BME280;66771;52.434;17.056;2023-01-19T01:22:25;99340.81;;;0.46;91.75
77603;BME280;66771;52.434;17.056;2023-01-19T01:24:58;99346.10;;;0.42;91.75
77603;BME280;66771;52.434;17.056;2023-01-19T01:27:43;99346.87;;;0.41;91.59
77603;BME280;66771;52.434;17.056;2023-01-19T01:44:41;99369.14;;;0.35;91.22
77603;BME280;66771;52.434;17.056;2023-01-19T01:50:51;99362.24;;;0.38;91.50
77603;BME280;66771;52.434;17.056;2023-01-19T02:05:16;99364.98;;;0.31;91.43
77603;BME280;66771;52.434;17.056;2023-01-19T02:08:01;99375.04;;;0.41;91.52
77603;BME280;66771;52.434;17.056;2023-01-19T02:10:49;99379.69;;;0.53;91.75
77603;BME280;66771;52.434;17.056;2023-01-19T02:13:37;99382.85;;;0.56;91.58
77603;BME280;66771;52.434;17.056;2023-01-19T02:16:07;99383.81;;;0.58;91.70
77603;BME280;66771;52.434;17.056;2023-01-19T02:18:35;99388.69;;;0.59;91.61
77603;BME280;66771;52.434;17.056;2023-01-19T02:21:10;99395.10;;;0.59;91.46
77603;BME280;66771;52.434;17.056;2023-01-19T02:23:46;99395.03;;;0.57;91.36
77603;BME280;66771;52.434;17.056;2023-01-19T02:26:30;99399.77;;;0.54;91.16
77603;BME280;66771;52.434;17.056;2023-01-19T02:29:02;99400.33;;;0.54;91.17
77603;BME280;66771;52.434;17.056;2023-01-19T02:31:30;99402.56;;;0.58;91.32
77603;BME280;66771;52.434;17.056;2023-01-19T02:33:59;99404.73;;;0.63;91.36
77603;BME280;66771;52.434;17.056;2023-01-19T02:39:05;99394.80;;;0.70;91.47
77603;BME280;66771;52.434;17.056;2023-01-19T02:41:40;99392.79;;;0.71;91.48
77603;BME280;66771;52.434;17.056;2023-01-19T02:44:08;99394.88;;;0.75;91.51
77603;BME280;66771;52.434;17.056;2023-01-19T02:46:37;99395.87;;;0.76;91.40
77603;BME280;66771;52.434;17.056;2023-01-19T02:49:04;99394.38;;;0.78;91.51
77603;BME280;66771;52.434;17.056;2023-01-19T02:51:31;99397.83;;;0.79;91.52
77603;BME280;66771;52.434;17.056;2023-01-19T02:54:24;99403.70;;;0.79;91.43
77603;BME280;66771;52.434;17.056;2023-01-19T03:10:48;99401.94;;;0.47;90.98
77603;BME280;66771;52.434;17.056;2023-01-19T03:16:15;99406.70;;;0.28;90.43
77603;BME280;66771;52.434;17.056;2023-01-19T03:18:45;99401.98;;;0.30;90.66
77603;BME280;66771;52.434;17.056;2023-01-19T03:21:16;99396.95;;;0.41;91.16
77603;BME280;66771;52.434;17.056;2023-01-19T03:23:46;99398.93;;;0.50;91.36
77603;BME280;66771;52.434;17.056;2023-01-19T03:26:17;99397.63;;;0.55;91.51
77603;BME280;66771;52.434;17.056;2023-01-19T03:28:46;99396.29;;;0.56;91.64
77603;BME280;66771;52.434;17.056;2023-01-19T03:31:17;99401.23;;;0.53;91.30
77603;BME280;66771;52.434;17.056;2023-01-19T03:33:50;99405.92;;;0.55;91.29
77603;BME280;66771;52.434;17.056;2023-01-19T03:36:26;99409.63;;;0.59;91.36
77603;BME280;66771;52.434;17.056;2023-01-19T03:38:57;99414.68;;;0.63;91.47
77603;BME280;66771;52.434;17.056;2023-01-19T03:41:26;99415.10;;;0.68;91.54
77603;BME280;66771;52.434;17.056;2023-01-19T03:43:55;99415.46;;;0.71;91.55
77603;BME280;66771;52.434;17.056;2023-01-19T03:46:23;99415.42;;;0.72;91.66
77603;BME280;66771;52.434;17.056;2023-01-19T03:48:51;99421.02;;;0.70;91.59
77603;BME280;66771;52.434;17.056;2023-01-19T03:51:19;99424.00;;;0.71;91.63
77603;BME280;66771;52.434;17.056;2023-01-19T03:53:47;99421.84;;;0.74;91.78
77603;BME280;66771;52.434;17.056;2023-01-19T03:56:21;99417.35;;;0.75;91.69
77603;BME280;66771;52.434;17.056;2023-01-19T03:58:49;99422.14;;;0.75;91.47
77603;BME280;66771;52.434;17.056;2023-01-19T04:01:17;99426.07;;;0.74;91.47
77603;BME280;66771;52.434;17.056;2023-01-19T04:03:46;99425.23;;;0.73;91.52
77603;BME280;66771;52.434;17.056;2023-01-19T04:06:12;99430.00;;;0.71;91.60
77603;BME280;66771;52.434;17.056;2023-01-19T04:08:39;99432.40;;;0.69;91.70
77603;BME280;66771;52.434;17.056;2023-01-19T04:11:06;99426.20;;;0.66;91.56
77603;BME280;66771;52.434;17.056;2023-01-19T04:13:33;99427.30;;;0.65;91.52
77603;BME280;66771;52.434;17.056;2023-01-19T04:16:01;99429.65;;;0.64;91.62
77603;BME280;66771;52.434;17.056;2023-01-19T04:18:30;99432.65;;;0.64;91.52
77603;BME280;66771;52.434;17.056;2023-01-19T04:21:05;99434.30;;;0.64;91.47
77603;BME280;66771;52.434;17.056;2023-01-19T04:23:32;99437.19;;;0.63;91.61
77603;BME280;66771;52.434;17.056;2023-01-19T04:26:01;99437.13;;;0.64;91.69
77603;BME280;66771;52.434;17.056;2023-01-19T04:28:28;99433.55;;;0.61;91.64
77603;BME280;66771;52.434;17.056;2023-01-19T04:30:55;99437.71;;;0.59;91.63
77603;BME280;66771;52.434;17.056;2023-01-19T04:33:22;99442.44;;;0.57;91.69
77603;BME280;66771;52.434;17.056;2023-01-19T04:35:50;99446.38;;;0.56;91.60
77603;BME280;66771;52.434;17.056;2023-01-19T04:38:19;99454.00;;;0.56;91.61
77603;BME280;66771;52.434;17.056;2023-01-19T04:40:47;99455.21;;;0.56;91.68
77603;BME280;66771;52.434;17.056;2023-01-19T04:43:15;99451.27;;;0.58;91.57
77603;BME280;66771;52.434;17.056;2023-01-19T04:45:42;99456.84;;;0.59;91.62
77603;BME280;66771;52.434;17.056;2023-01-19T04:48:12;99459.84;;;0.56;91.64
77603;BME280;66771;52.434;17.056;2023-01-19T04:50:39;99464.85;;;0.55;91.67
77603;BME280;66771;52.434;17.056;2023-01-19T04:53:07;99469.55;;;0.53;91.73
77603;BME280;66771;52.434;17.056;2023-01-19T04:55:36;99472.51;;;0.51;91.65
77603;BME280;66771;52.434;17.056;2023-01-19T04:58:04;99471.38;;;0.53;91.72
77603;BME280;66771;52.434;17.056;2023-01-19T05:00:30;99468.77;;;0.52;91.72
77603;BME280;66771;52.434;17.056;2023-01-19T05:02:57;99463.19;;;0.50;91.56
77603;BME280;66771;52.434;17.056;2023-01-19T05:05:24;99464.19;;;0.51;91.67
77603;BME280;66771;52.434;17.056;2023-01-19T05:07:52;99461.86;;;0.52;91.72
77603;BME280;66771;52.434;17.056;2023-01-19T05:10:20;99464.20;;;0.51;91.50
77603;BME280;66771;52.434;17.056;2023-01-19T05:12:47;99468.92;;;0.49;91.43
77603;BME280;66771;52.434;17.056;2023-01-19T05:15:15;99467.30;;;0.46;91.37
77603;BME280;66771;52.434;17.056;2023-01-19T05:17:41;99471.39;;;0.42;91.47
77603;BME280;66771;52.434;17.056;2023-01-19T05:20:10;99471.85;;;0.40;91.58
77603;BME280;66771;52.434;17.056;2023-01-19T05:22:37;99473.77;;;0.37;91.46
77603;BME280;66771;52.434;17.056;2023-01-19T05:25:06;99476.92;;;0.38;91.53
77603;BME280;66771;52.434;17.056;2023-01-19T05:27:36;99480.35;;;0.40;91.55
77603;BME280;66771;52.434;17.056;2023-01-19T05:30:05;99480.75;;;0.43;91.55
77603;BME280;66771;52.434;17.056;2023-01-19T05:32:32;99483.57;;;0.43;91.53
77603;BME280;66771;52.434;17.056;2023-01-19T05:34:58;99485.60;;;0.44;91.60
77603;BME280;66771;52.434;17.056;2023-01-19T05:37:25;99487.36;;;0.45;91.57
77603;BME280;66771;52.434;17.056;2023-01-19T05:39:52;99490.08;;;0.47;91.56
77603;BME280;66771;52.434;17.056;2023-01-19T05:42:19;99487.58;;;0.44;91.65
77603;BME280;66771;52.434;17.056;2023-01-19T05:44:46;99487.89;;;0.42;91.58
77603;BME280;66771;52.434;17.056;2023-01-19T05:47:14;99488.73;;;0.42;91.63
77603;BME280;66771;52.434;17.056;2023-01-19T05:49:41;99490.55;;;0.41;91.61
77603;BME280;66771;52.434;17.056;2023-01-19T05:52:07;99491.19;;;0.42;91.64
77603;BME280;66771;52.434;17.056;2023-01-19T05:54:34;99497.11;;;0.41;91.34
77603;BME280;66771;52.434;17.056;2023-01-19T05:57:01;99501.42;;;0.40;91.29
77603;BME280;66771;52.434;17.056;2023-01-19T05:59:29;99503.98;;;0.41;91.54
77603;BME280;66771;52.434;17.056;2023-01-19T06:01:56;99506.92;;;0.43;91.61
77603;BME280;66771;52.434;17.056;2023-01-19T06:04:25;99513.73;;;0.44;91.80
77603;BME280;66771;52.434;17.056;2023-01-19T06:06:52;99517.45;;;0.41;91.63
77603;BME280;66771;52.434;17.056;2023-01-19T06:09:19;99521.64;;;0.42;91.65
77603;BME280;66771;52.434;17.056;2023-01-19T06:11:45;99527.09;;;0.43;91.67
77603;BME280;66771;52.434;17.056;2023-01-19T06:14:12;99527.48;;;0.43;91.51
77603;BME280;66771;52.434;17.056;2023-01-19T06:16:39;99533.48;;;0.43;91.55
77603;BME280;66771;52.434;17.056;2023-01-19T06:19:06;99538.05;;;0.43;91.66
77603;BME280;66771;52.434;17.056;2023-01-19T06:21:33;99546.10;;;0.45;91.56
77603;BME280;66771;52.434;17.056;2023-01-19T06:24:00;99552.65;;;0.44;91.70
77603;BME280;66771;52.434;17.056;2023-01-19T06:26:28;99559.03;;;0.45;91.85
77603;BME280;66771;52.434;17.056;2023-01-19T06:28:55;99567.39;;;0.44;91.80
77603;BME280;66771;52.434;17.056;2023-01-19T06:31:21;99572.31;;;0.44;91.72
77603;BME280;66771;52.434;17.056;2023-01-19T06:33:48;99580.22;;;0.46;91.74
77603;BME280;66771;52.434;17.056;2023-01-19T06:36:15;99588.86;;;0.43;91.46
77603;BME280;66771;52.434;17.056;2023-01-19T06:38:42;99595.65;;;0.38;91.20
77603;BME280;66771;52.434;17.056;2023-01-19T06:41:09;99607.56;;;0.34;91.06
77603;BME280;66771;52.434;17.056;2023-01-19T06:43:36;99607.83;;;0.32;91.09
77603;BME280;66771;52.434;17.056;2023-01-19T06:46:02;99606.55;;;0.33;91.19
77603;BME280;66771;52.434;17.056;2023-01-19T06:48:30;99609.48;;;0.37;91.40
77603;BME280;66771;52.434;17.056;2023-01-19T06:50:57;99614.36;;;0.43;91.62
77603;BME280;66771;52.434;17.056;2023-01-19T06:53:23;99617.23;;;0.45;91.48
77603;BME280;66771;52.434;17.056;2023-01-19T06:55:53;99616.20;;;0.52;91.60
77603;BME280;66771;52.434;17.056;2023-01-19T06:58:24;99617.98;;;0.58;91.71
77603;BME280;66771;52.434;17.056;2023-01-19T07:00:51;99619.40;;;0.61;91.66
77603;BME280;66771;52.434;17.056;2023-01-19T07:03:20;99623.10;;;0.65;91.67
77603;BME280;66771;52.434;17.056;2023-01-19T07:05:51;99628.70;;;0.66;91.74
77603;BME280;66771;52.434;17.056;2023-01-19T07:08:18;99627.44;;;0.66;91.80
77603;BME280;66771;52.434;17.056;2023-01-19T07:10:45;99627.79;;;0.67;91.84
77603;BME280;66771;52.434;17.056;2023-01-19T07:13:12;99629.34;;;0.67;91.64
77603;BME280;66771;52.434;17.056;2023-01-19T07:15:39;99639.03;;;0.68;91.73
77603;BME280;66771;52.434;17.056;2023-01-19T07:18:06;99646.17;;;0.71;91.60
77603;BME280;66771;52.434;17.056;2023-01-19T07:20:34;99649.25;;;0.73;91.69
77603;BME280;66771;52.434;17.056;2023-01-19T07:23:01;99649.75;;;0.73;91.67
77603;BME280;66771;52.434;17.056;2023-01-19T07:25:28;99647.61;;;0.73;91.70
77603;BME280;66771;52.434;17.056;2023-01-19T07:27:57;99648.33;;;0.73;91.74
77603;BME280;66771;52.434;17.056;2023-01-19T07:30:24;99647.98;;;0.73;91.62
77603;BME280;66771;52.434;17.056;2023-01-19T07:32:54;99648.89;;;0.73;91.60
77603;BME280;66771;52.434;17.056;2023-01-19T07:35:25;99647.60;;;0.64;91.12
77603;BME280;66771;52.434;17.056;2023-01-19T07:37:52;99645.25;;;0.65;91.26
77603;BME280;66771;52.434;17.056;2023-01-19T07:40:19;99645.34;;;0.70;91.24
77603;BME280;66771;52.434;17.056;2023-01-19T07:42:46;99642.77;;;0.68;91.25
77603;BME280;66771;52.434;17.056;2023-01-19T07:45:15;99645.45;;;0.67;91.27
77603;BME280;66771;52.434;17.056;2023-01-19T07:47:43;99650.75;;;0.71;91.49
77603;BME280;66771;52.434;17.056;2023-01-19T07:50:10;99653.95;;;0.74;91.60
77603;BME280;66771;52.434;17.056;2023-01-19T07:52:38;99653.71;;;0.78;91.76
77603;BME280;66771;52.434;17.056;2023-01-19T07:55:06;99655.81;;;0.82;91.66
77603;BME280;66771;52.434;17.056;2023-01-19T07:57:34;99658.77;;;0.80;91.47
77603;BME280;66771;52.434;17.056;2023-01-19T08:00:01;99662.70;;;0.83;91.54
77603;BME280;66771;52.434;17.056;2023-01-19T08:02:39;99669.38;;;0.84;91.42
77603;BME280;66771;52.434;17.056;2023-01-19T08:05:07;99672.41;;;0.80;91.22
77603;BME280;66771;52.434;17.056;2023-01-19T08:07:33;99678.29;;;0.79;91.25
77603;BME280;66771;52.434;17.056;2023-01-19T08:10:00;99682.30;;;0.84;91.42
77603;BME280;66771;52.434;17.056;2023-01-19T08:12:27;99683.88;;;0.91;91.68
77603;BME280;66771;52.434;17.056;2023-01-19T08:14:53;99683.30;;;0.95;91.55
77603;BME280;66771;52.434;17.056;2023-01-19T08:17:20;99679.30;;;1.01;91.71
77603;BME280;66771;52.434;17.056;2023-01-19T08:19:47;99674.35;;;1.04;91.50
77603;BME280;66771;52.434;17.056;2023-01-19T08:22:14;99676.00;;;1.03;91.20
77603;BME280;66771;52.434;17.056;2023-01-19T08:24:41;99673.59;;;1.05;91.32
77603;BME280;66771;52.434;17.056;2023-01-19T08:27:08;99673.61;;;1.07;91.50
77603;BME280;66771;52.434;17.056;2023-01-19T08:29:37;99672.34;;;1.08;91.53
77603;BME280;66771;52.434;17.056;2023-01-19T08:32:04;99666.65;;;1.08;91.42
77603;BME280;66771;52.434;17.056;2023-01-19T08:34:32;99672.42;;;1.07;91.08
77603;BME280;66771;52.434;17.056;2023-01-19T08:36:59;99666.86;;;1.08;91.28
77603;BME280;66771;52.434;17.056;2023-01-19T08:39:25;99671.58;;;1.12;91.23
77603;BME280;66771;52.434;17.056;2023-01-19T08:41:53;99673.85;;;1.19;91.44
77603;BME280;66771;52.434;17.056;2023-01-19T08:44:20;99671.98;;;1.25;91.47
77603;BME280;66771;52.434;17.056;2023-01-19T08:46:47;99674.63;;;1.28;91.67
77603;BME280;66771;52.434;17.056;2023-01-19T08:49:14;99674.80;;;1.28;91.57
77603;BME280;66771;52.434;17.056;2023-01-19T08:51:41;99671.25;;;1.28;91.47
77603;BME280;66771;52.434;17.056;2023-01-19T08:54:12;99674.86;;;1.27;91.29
77603;BME280;66771;52.434;17.056;2023-01-19T08:56:38;99672.58;;;1.26;91.22
77603;BME280;66771;52.434;17.056;2023-01-19T08:59:05;99673.11;;;1.29;91.34
77603;BME280;66771;52.434;17.056;2023-01-19T09:01:32;99674.86;;;1.36;91.51
77603;BME280;66771;52.434;17.056;2023-01-19T09:03:59;99673.35;;;1.39;91.52
77603;BME280;66771;52.434;17.056;2023-01-19T09:06:25;99676.24;;;1.40;91.33
77603;BME280;66771;52.434;17.056;2023-01-19T09:08:53;99679.17;;;1.39;91.39
77603;BME280;66771;52.434;17.056;2023-01-19T09:11:20;99687.38;;;1.38;91.34
77603;BME280;66771;52.434;17.056;2023-01-19T09:13:46;99685.30;;;1.40;91.24
77603;BME280;66771;52.434;17.056;2023-01-19T09:16:13;99688.60;;;1.48;91.47
77603;BME280;66771;52.434;17.056;2023-01-19T09:18:41;99693.23;;;1.57;91.40
77603;BME280;66771;52.434;17.056;2023-01-19T09:21:08;99696.52;;;1.65;91.38
77603;BME280;66771;52.434;17.056;2023-01-19T09:23:35;99698.42;;;1.75;91.28
77603;BME280;66771;52.434;17.056;2023-01-19T09:26:04;99699.94;;;1.86;91.31
77603;BME280;66771;52.434;17.056;2023-01-19T09:28:31;99704.95;;;1.89;91.16
77603;BME280;66771;52.434;17.056;2023-01-19T09:30:58;99708.79;;;1.87;91.01
77603;BME280;66771;52.434;17.056;2023-01-19T09:33:24;99708.38;;;1.87;91.24
77603;BME280;66771;52.434;17.056;2023-01-19T09:35:51;99716.24;;;1.92;91.25
77603;BME280;66771;52.434;17.056;2023-01-19T09:38:19;99714.13;;;1.96;91.14
77603;BME280;66771;52.434;17.056;2023-01-19T09:40:51;99710.23;;;1.99;91.23
77603;BME280;66771;52.434;17.056;2023-01-19T09:48:56;99711.01;;;2.22;91.03
77603;BME280;66771;52.434;17.056;2023-01-19T09:56:32;99707.66;;;2.34;90.42
77603;BME280;66771;52.434;17.056;2023-01-19T09:59:00;99704.14;;;2.36;90.52
77603;BME280;66771;52.434;17.056;2023-01-19T10:04:27;99698.59;;;2.25;90.15
77603;BME280;66771;52.434;17.056;2023-01-19T10:07:04;99703.09;;;2.21;90.14
77603;BME280;66771;52.434;17.056;2023-01-19T10:12:16;99706.41;;;2.28;90.42
77603;BME280;66771;52.434;17.056;2023-01-19T10:14:59;99708.14;;;2.29;90.44
77603;BME280;66771;52.434;17.056;2023-01-19T10:17:46;99713.45;;;2.35;90.75
77603;BME280;66771;52.434;17.056;2023-01-19T10:20:27;99719.60;;;2.36;90.67
77603;BME280;66771;52.434;17.056;2023-01-19T10:22:56;99723.23;;;2.28;90.42
77603;BME280;66771;52.434;17.056;2023-01-19T10:25:24;99725.04;;;2.25;90.15
77603;BME280;66771;52.434;17.056;2023-01-19T10:27:51;99725.32;;;2.26;90.41
77603;BME280;66771;52.434;17.056;2023-01-19T10:30:21;99722.23;;;2.27;90.19
77603;BME280;66771;52.434;17.056;2023-01-19T10:32:50;99728.44;;;2.27;90.18
77603;BME280;66771;52.434;17.056;2023-01-19T10:35:21;99730.98;;;2.23;90.18
77603;BME280;66771;52.434;17.056;2023-01-19T10:37:54;99732.23;;;2.20;90.26
77603;BME280;66771;52.434;17.056;2023-01-19T10:40:47;99734.11;;;2.18;90.26
77603;BME280;66771;52.434;17.056;2023-01-19T10:43:35;99732.38;;;2.18;90.43
77603;BME280;66771;52.434;17.056;2023-01-19T10:46:15;99731.46;;;2.06;89.95
77603;BME280;66771;52.434;17.056;2023-01-19T10:48:43;99726.52;;;1.96;89.99
77603;BME280;66771;52.434;17.056;2023-01-19T10:51:13;99720.16;;;1.92;89.74
77603;BME280;66771;52.434;17.056;2023-01-19T10:53:44;99723.13;;;1.87;89.72
77603;BME280;66771;52.434;17.056;2023-01-19T10:56:23;99722.23;;;1.87;90.04
77603;BME280;66771;52.434;17.056;2023-01-19T10:58:51;99726.54;;;1.90;90.08
77603;BME280;66771;52.434;17.056;2023-01-19T11:01:28;99719.41;;;1.84;90.03
77603;BME280;66771;52.434;17.056;2023-01-19T11:03:56;99714.61;;;1.80;90.18
77603;BME280;66771;52.434;17.056;2023-01-19T11:06:32;99716.68;;;1.72;89.92
77603;BME280;66771;52.434;17.056;2023-01-19T11:09:29;99715.89;;;1.61;89.79
77603;BME280;66771;52.434;17.056;2023-01-19T11:11:55;99716.56;;;1.55;89.97
77603;BME280;66771;52.434;17.056;2023-01-19T11:14:23;99714.34;;;1.54;89.99
77603;BME280;66771;52.434;17.056;2023-01-19T11:16:53;99710.25;;;1.41;89.56
77603;BME280;66771;52.434;17.056;2023-01-19T11:19:31;99710.07;;;1.31;89.87
77603;BME280;66771;52.434;17.056;2023-01-19T11:22:18;99710.34;;;1.29;90.12
77603;BME280;66771;52.434;17.056;2023-01-19T11:24:48;99710.98;;;1.27;90.29
77603;BME280;66771;52.434;17.056;2023-01-19T11:27:17;99709.00;;;1.25;90.15
77603;BME280;66771;52.434;17.056;2023-01-19T11:29:47;99708.98;;;1.22;90.17
77603;BME280;66771;52.434;17.056;2023-01-19T11:32:20;99709.98;;;1.20;90.23
77603;BME280;66771;52.434;17.056;2023-01-19T11:34:48;99706.50;;;1.18;90.07
77603;BME280;66771;52.434;17.056;2023-01-19T11:40:05;99712.57;;;1.21;90.16
77603;BME280;66771;52.434;17.056;2023-01-19T11:42:34;99709.20;;;1.27;90.19
77603;BME280;66771;52.434;17.056;2023-01-19T11:45:15;99703.42;;;1.30;90.24
77603;BME280;66771;52.434;17.056;2023-01-19T11:47:45;99708.31;;;1.27;90.22
77603;BME280;66771;52.434;17.056;2023-01-19T11:50:23;99709.83;;;1.29;90.24
77603;BME280;66771;52.434;17.056;2023-01-19T11:52:58;99711.27;;;1.32;90.28
77603;BME280;66771;52.434;17.056;2023-01-19T11:58:12;99711.11;;;1.34;90.11
77603;BME280;66771;52.434;17.056;2023-01-19T12:05:51;99715.14;;;1.39;90.12
77603;BME280;66771;52.434;17.056;2023-01-19T12:08:28;99713.80;;;1.31;89.98
77603;BME280;66771;52.434;17.056;2023-01-19T12:10:57;99716.91;;;1.23;90.09
77603;BME280;66771;52.434;17.056;2023-01-19T12:13:26;99716.15;;;1.20;90.12
77603;BME280;66771;52.434;17.056;2023-01-19T12:16:02;99711.68;;;1.24;90.40
77603;BME280;66771;52.434;17.056;2023-01-19T12:18:35;99710.05;;;1.28;90.32
77603;BME280;66771;52.434;17.056;2023-01-19T12:21:04;99707.86;;;1.32;90.45
77603;BME280;66771;52.434;17.056;2023-01-19T12:24:23;99706.35;;;1.34;90.52
77603;BME280;66771;52.434;17.056;2023-01-19T12:29:09;99716.81;;;1.21;89.75
77603;BME280;66771;52.434;17.056;2023-01-19T12:31:37;99720.38;;;1.21;89.85
77603;BME280;66771;52.434;17.056;2023-01-19T12:36:54;99715.67;;;1.55;90.47
77603;BME280;66771;52.434;17.056;2023-01-19T12:39:22;99714.74;;;1.88;90.07
77603;BME280;66771;52.434;17.056;2023-01-19T12:42:22;99714.74;;;2.00;89.76
77603;BME280;66771;52.434;17.056;2023-01-19T12:45:12;99725.09;;;2.12;89.91
77603;BME280;66771;52.434;17.056;2023-01-19T12:47:49;99728.73;;;2.10;89.54
77603;BME280;66771;52.434;17.056;2023-01-19T12:50:18;99730.16;;;2.07;89.36
77603;BME280;66771;52.434;17.056;2023-01-19T12:52:51;99727.80;;;2.04;89.45
77603;BME280;66771;52.434;17.056;2023-01-19T12:55:27;99721.06;;;1.92;89.38
77603;BME280;66771;52.434;17.056;2023-01-19T12:58:06;99720.89;;;1.76;89.38
77603;BME280;66771;52.434;17.056;2023-01-19T13:00:41;99716.18;;;1.62;89.25
77603;BME280;66771;52.434;17.056;2023-01-19T13:05:53;99712.80;;;1.33;89.43
77603;BME280;66771;52.434;17.056;2023-01-19T13:08:28;99713.13;;;1.27;89.63
77603;BME280;66771;52.434;17.056;2023-01-19T13:11:16;99709.55;;;1.24;89.77
77603;BME280;66771;52.434;17.056;2023-01-19T13:23:59;99703.86;;;1.01;89.02
77603;BME280;66771;52.434;17.056;2023-01-19T13:26:34;99697.06;;;0.96;89.01
77603;BME280;66771;52.434;17.056;2023-01-19T13:29:15;99695.65;;;0.96;89.17
77603;BME280;66771;52.434;17.056;2023-01-19T13:31:45;99688.45;;;0.95;89.37
77603;BME280;66771;52.434;17.056;2023-01-19T13:34:21;99690.23;;;0.91;89.29
77603;BME280;66771;52.434;17.056;2023-01-19T13:36:53;99694.46;;;0.88;89.56
77603;BME280;66771;52.434;17.056;2023-01-19T13:39:29;99694.86;;;0.81;89.50
77603;BME280;66771;52.434;17.056;2023-01-19T13:42:04;99694.56;;;0.76;89.80
77603;BME280;66771;52.434;17.056;2023-01-19T13:44:36;99694.53;;;0.70;89.53
77603;BME280;66771;52.434;17.056;2023-01-19T13:47:14;99693.77;;;0.64;89.48
77603;BME280;66771;52.434;17.056;2023-01-19T13:49:45;99692.66;;;0.65;89.72
77603;BME280;66771;52.434;17.056;2023-01-19T13:52:20;99694.08;;;0.62;89.61
77603;BME280;66771;52.434;17.056;2023-01-19T13:54:51;99697.05;;;0.52;89.65
77603;BME280;66771;52.434;17.056;2023-01-19T13:57:39;99697.93;;;0.49;89.80
77603;BME280;66771;52.434;17.056;2023-01-19T14:03:12;99709.33;;;0.26;89.51
77603;BME280;66771;52.434;17.056;2023-01-19T14:05:40;99715.16;;;0.12;89.27
77603;BME280;66771;52.434;17.056;2023-01-19T14:10:43;99721.52;;;-0.06;89.35
77603;BME280;66771;52.434;17.056;2023-01-19T14:13:18;99719.75;;;-0.13;89.38
77603;BME280;66771;52.434;17.056;2023-01-19T14:15:47;99717.45;;;-0.25;89.24
77603;BME280;66771;52.434;17.056;2023-01-19T14:20:57;99708.85;;;-0.26;90.12
77603;BME280;66771;52.434;17.056;2023-01-19T14:23:47;99704.90;;;-0.28;90.26
77603;BME280;66771;52.434;17.056;2023-01-19T14:29:25;99707.59;;;-0.47;89.79
77603;BME280;66771;52.434;17.056;2023-01-19T14:34:40;99709.30;;;-0.54;90.19
77603;BME280;66771;52.434;17.056;2023-01-19T14:37:26;99710.27;;;-0.56;90.44
77603;BME280;66771;52.434;17.056;2023-01-19T14:42:35;99713.01;;;-0.69;90.39
77603;BME280;66771;52.434;17.056;2023-01-19T14:45:14;99710.26;;;-0.78;90.45
77603;BME280;66771;52.434;17.056;2023-01-19T14:47:43;99715.23;;;-0.83;90.59
77603;BME280;66771;52.434;17.056;2023-01-19T14:52:58;99717.23;;;-0.92;90.57
77603;BME280;66771;52.434;17.056;2023-01-19T14:55:59;99715.35;;;-0.97;90.55
77603;BME280;66771;52.434;17.056;2023-01-19T14:58:32;99720.29;;;-1.01;90.57
77603;BME280;66771;52.434;17.056;2023-01-19T15:01:00;99721.95;;;-1.10;90.43
77603;BME280;66771;52.434;17.056;2023-01-19T15:03:27;99729.27;;;-1.17;90.58
77603;BME280;66771;52.434;17.056;2023-01-19T15:05:57;99734.02;;;-1.24;90.61
77603;BME280;66771;52.434;17.056;2023-01-19T15:08:33;99732.98;;;-1.33;90.39
77603;BME280;66771;52.434;17.056;2023-01-19T15:11:08;99738.25;;;-1.40;90.39
77603;BME280;66771;52.434;17.056;2023-01-19T15:13:36;99742.01;;;-1.46;90.28
77603;BME280;66771;52.434;17.056;2023-01-19T15:16:05;99742.85;;;-1.53;90.28
77603;BME280;66771;52.434;17.056;2023-01-19T15:18:34;99745.40;;;-1.59;90.28
77603;BME280;66771;52.434;17.056;2023-01-19T15:21:02;99744.98;;;-1.66;90.33
77603;BME280;66771;52.434;17.056;2023-01-19T15:23:29;99744.00;;;-1.72;90.39
77603;BME280;66771;52.434;17.056;2023-01-19T15:26:00;99740.66;;;-1.76;90.60
77603;BME280;66771;52.434;17.056;2023-01-19T15:28:28;99743.63;;;-1.80;90.61
77603;BME280;66771;52.434;17.056;2023-01-19T15:30:55;99743.38;;;-1.83;90.51
77603;BME280;66771;52.434;17.056;2023-01-19T15:33:25;99747.55;;;-1.86;90.65
77603;BME280;66771;52.434;17.056;2023-01-19T15:35:53;99747.31;;;-1.84;90.81
77603;BME280;66771;52.434;17.056;2023-01-19T15:38:19;99751.48;;;-1.82;90.75
77603;BME280;66771;52.434;17.056;2023-01-19T15:40:47;99752.36;;;-1.82;90.84